Time;durP1;ratioP1;P1;durP2;ratioP2;P2;SDS_P1;SDS_P2;PMS_P1;PMS_P2;Temp;Humidity;BMP_temperature;BMP_pressure;BME280_temperature;BME280_humidity;BME280_pressure;Samples;Min_cycle;Max_cycle;Signal;HPM_P1;HPM_P2
2022/08/23 00:00:09;0.00;0.00;0.62;0.00;0.00;0.62;4.43;2.70;;;28.00;26.30;;;;;;2241592;62;20758;-62
2022/08/23 00:02:56;0.00;0.00;0.62;0.00;0.00;0.62;3.13;2.60;;;28.00;26.30;;;;;;2241660;62;20367;-62
2022/08/23 00:05:40;0.00;0.00;0.62;0.00;0.00;0.62;5.47;2.63;;;28.00;26.40;;;;;;2241650;61;20606;-63
2022/08/23 00:08:25;0.00;0.00;0.62;0.00;0.00;0.62;3.07;2.23;;;27.90;26.40;;;;;;2244514;61;20382;-61
2022/08/23 00:11:25;0.00;0.00;0.62;0.00;0.00;0.62;2.77;2.57;;;27.90;26.50;;;;;;2241588;62;20439;-67
2022/08/23 00:14:17;0.00;0.00;0.62;0.00;0.00;0.62;7.37;2.60;;;27.90;26.50;;;;;;2241728;62;20401;-69
2022/08/23 00:17:04;0.00;0.00;0.62;0.00;0.00;0.62;4.43;3.00;;;27.90;26.70;;;;;;2241597;62;20402;-73
2022/08/23 00:19:50;0.00;0.00;0.62;0.00;0.00;0.62;4.73;2.67;;;27.90;26.70;;;;;;2241693;62;20382;-60
2022/08/23 00:22:36;0.00;0.00;0.62;0.00;0.00;0.62;3.67;2.37;;;27.80;27.30;;;;;;2241814;62;20370;-63
2022/08/23 00:25:21;0.00;0.00;0.62;0.00;0.00;0.62;3.17;2.83;;;27.80;26.80;;;;;;2241380;61;20387;-62
2022/08/23 00:28:07;0.00;0.00;0.62;0.00;0.00;0.62;3.60;2.67;;;27.70;26.80;;;;;;2241657;62;20390;-64
2022/08/23 00:30:52;0.00;0.00;0.62;0.00;0.00;0.62;4.93;2.13;;;27.70;26.80;;;;;;2242179;62;20422;-62
2022/08/23 00:33:37;0.00;0.00;0.62;0.00;0.00;0.62;4.40;2.53;;;27.70;26.90;;;;;;2241454;62;20386;-62
2022/08/23 00:36:23;0.00;0.00;0.62;0.00;0.00;0.62;4.30;3.27;;;27.70;27.00;;;;;;2241703;61;20359;-62
2022/08/23 00:39:12;0.00;0.00;0.62;0.00;0.00;0.62;4.97;2.77;;;27.70;27.20;;;;;;2241519;62;20383;-64
2022/08/23 00:47:38;0.00;0.00;0.62;0.00;0.00;0.62;3.60;2.90;;;27.70;27.30;;;;;;2569360;46;20439;-62
2022/08/23 00:48:16;0.00;0.00;0.62;0.00;0.00;0.62;2.90;2.60;;;27.60;27.20;;;;;;2241417;62;20613;-63
2022/08/23 00:51:09;0.00;0.00;0.62;0.00;0.00;0.62;2.90;2.57;;;27.60;27.30;;;;;;2241257;62;20413;-63
2022/08/23 00:54:00;0.00;0.00;0.62;0.00;0.00;0.62;5.90;2.70;;;27.70;27.30;;;;;;2241040;62;20410;-63
2022/08/23 00:56:45;0.00;0.00;0.62;0.00;0.00;0.62;3.47;2.33;;;27.70;27.30;;;;;;2241776;61;20637;-67
2022/08/23 00:59:31;0.00;0.00;0.62;0.00;0.00;0.62;3.00;2.57;;;27.70;27.30;;;;;;2241796;62;20370;-65
2022/08/23 01:02:16;0.00;0.00;0.62;0.00;0.00;0.62;2.70;2.40;;;27.70;27.30;;;;;;2241364;62;20447;-66
2022/08/23 01:05:02;0.00;0.00;0.62;0.00;0.00;0.62;2.83;2.07;;;27.80;27.30;;;;;;2241471;62;20375;-63
2022/08/23 01:07:50;0.00;0.00;0.62;0.00;0.00;0.62;3.00;2.13;;;27.80;27.30;;;;;;2241944;62;20398;-65
2022/08/23 01:10:45;0.00;0.00;0.62;0.00;0.00;0.62;2.77;2.50;;;27.90;27.30;;;;;;2241210;62;20365;-63
2022/08/23 01:13:36;0.00;0.00;0.62;0.00;0.00;0.62;3.10;2.30;;;27.90;27.20;;;;;;2241679;62;20375;-61
2022/08/23 01:16:27;0.00;0.00;0.62;0.00;0.00;0.62;3.87;2.70;;;28.00;27.30;;;;;;2240678;62;20379;-64
2022/08/23 01:19:21;0.00;0.00;0.62;0.00;0.00;0.62;3.47;2.10;;;28.00;27.30;;;;;;2242030;62;20362;-67
2022/08/23 01:22:14;0.00;0.00;0.62;0.00;0.00;0.62;2.93;1.90;;;28.00;27.20;;;;;;2241652;62;20387;-62
2022/08/23 01:25:03;0.00;0.00;0.62;0.00;0.00;0.62;3.10;2.20;;;28.10;27.20;;;;;;2240672;61;20367;-65
2022/08/23 01:27:50;0.00;0.00;0.62;0.00;0.00;0.62;3.03;2.43;;;28.10;27.20;;;;;;2241309;62;20391;-63
2022/08/23 01:30:35;0.00;0.00;0.62;0.00;0.00;0.62;3.37;1.90;;;28.10;27.20;;;;;;2241007;62;20406;-62
2022/08/23 01:33:20;0.00;0.00;0.62;0.00;0.00;0.62;2.93;2.63;;;28.20;27.20;;;;;;2241900;62;20758;-66
2022/08/23 01:36:08;0.00;0.00;0.62;0.00;0.00;0.62;3.13;2.43;;;28.20;27.20;;;;;;2241079;61;20378;-67
2022/08/23 01:38:53;0.00;0.00;0.62;0.00;0.00;0.62;3.07;2.30;;;28.20;27.10;;;;;;2240718;62;20374;-65
2022/08/23 01:41:40;0.00;0.00;0.62;0.00;0.00;0.62;3.10;2.30;;;28.20;27.10;;;;;;2241611;61;20410;-63
2022/08/23 01:44:28;0.00;0.00;0.62;0.00;0.00;0.62;2.93;2.63;;;28.30;27.10;;;;;;2241513;62;20370;-64
2022/08/23 01:47:12;0.00;0.00;0.62;0.00;0.00;0.62;3.47;2.50;;;28.30;27.10;;;;;;2244513;61;20397;-63
2022/08/23 01:49:57;0.00;0.00;0.62;0.00;0.00;0.62;2.67;2.47;;;28.30;27.00;;;;;;2245077;61;20428;-65
2022/08/23 01:52:43;0.00;0.00;0.62;0.00;0.00;0.62;3.07;2.20;;;28.30;27.00;;;;;;2245253;61;20622;-64
2022/08/23 01:55:29;0.00;0.00;0.62;0.00;0.00;0.62;3.13;2.27;;;28.40;27.10;;;;;;2244154;61;20627;-64
2022/08/23 01:58:15;0.00;0.00;0.62;0.00;0.00;0.62;3.57;2.50;;;28.40;27.00;;;;;;2243829;61;20402;-64
2022/08/23 02:01:03;0.00;0.00;0.62;0.00;0.00;0.62;2.43;1.83;;;28.40;27.00;;;;;;2240753;62;20456;-62
2022/08/23 02:03:49;0.00;0.00;0.62;0.00;0.00;0.62;3.23;1.93;;;28.40;27.00;;;;;;2241509;62;20492;-65
2022/08/23 02:06:34;0.00;0.00;0.62;0.00;0.00;0.62;3.13;2.27;;;28.40;27.00;;;;;;2241661;61;20445;-62
2022/08/23 02:09:21;0.00;0.00;0.62;0.00;0.00;0.62;4.00;2.50;;;28.50;27.00;;;;;;2240812;62;20475;-63
2022/08/23 02:12:07;0.00;0.00;0.62;0.00;0.00;0.62;2.23;2.03;;;28.50;27.00;;;;;;2241481;62;20595;-65
2022/08/23 02:14:53;0.00;0.00;0.62;0.00;0.00;0.62;3.20;2.60;;;28.50;26.90;;;;;;2241318;62;20398;-62
2022/08/23 02:17:43;0.00;0.00;0.62;0.00;0.00;0.62;2.50;2.23;;;28.50;26.90;;;;;;2241332;62;20385;-64
2022/08/23 02:20:28;0.00;0.00;0.62;0.00;0.00;0.62;3.60;2.80;;;28.60;27.00;;;;;;2241705;62;20366;-62
2022/08/23 02:23:12;0.00;0.00;0.62;0.00;0.00;0.62;3.53;2.10;;;28.60;26.90;;;;;;2241094;62;20736;-63
2022/08/23 02:25:57;0.00;0.00;0.62;0.00;0.00;0.62;2.53;2.10;;;28.60;26.90;;;;;;2242215;61;20736;-65
2022/08/23 02:28:42;0.00;0.00;0.62;0.00;0.00;0.62;3.73;2.77;;;28.70;26.90;;;;;;2243089;62;20723;-65
2022/08/23 02:31:29;0.00;0.00;0.62;0.00;0.00;0.62;5.10;2.63;;;28.60;26.90;;;;;;2241671;62;20366;-62
2022/08/23 02:34:16;0.00;0.00;0.62;0.00;0.00;0.62;3.03;2.20;;;28.70;26.90;;;;;;2242189;62;20430;-63
2022/08/23 02:37:02;0.00;0.00;0.62;0.00;0.00;0.62;2.37;2.13;;;28.70;26.90;;;;;;2242817;62;20769;-64
2022/08/23 02:39:47;0.00;0.00;0.62;0.00;0.00;0.62;6.03;2.70;;;28.70;26.90;;;;;;2242346;62;20366;-62
2022/08/23 02:42:32;0.00;0.00;0.62;0.00;0.00;0.62;2.83;2.40;;;28.70;26.80;;;;;;2242145;62;20369;-65
2022/08/23 02:45:19;0.00;0.00;0.62;0.00;0.00;0.62;2.53;1.97;;;28.70;26.80;;;;;;2241293;61;20430;-64
2022/08/23 02:48:08;0.00;0.00;0.62;0.00;0.00;0.62;2.43;2.23;;;28.70;26.80;;;;;;2242150;62;20386;-63
2022/08/23 02:51:03;0.00;0.00;0.62;0.00;0.00;0.62;2.60;2.10;;;28.70;26.80;;;;;;2242010;62;20614;-65
2022/08/23 02:53:48;0.00;0.00;0.62;0.00;0.00;0.62;3.87;2.50;;;28.80;26.90;;;;;;2241298;62;20397;-62
2022/08/23 02:56:35;0.00;0.00;0.62;0.00;0.00;0.62;2.43;2.00;;;28.80;26.90;;;;;;2241668;61;20504;-63
2022/08/23 02:59:20;0.00;0.00;0.62;0.00;0.00;0.62;2.43;2.07;;;28.80;26.80;;;;;;2242047;62;20370;-64
2022/08/23 03:02:05;0.00;0.00;0.62;0.00;0.00;0.62;3.07;2.50;;;28.80;26.80;;;;;;2242510;62;20706;-66
2022/08/23 03:04:57;0.00;0.00;0.62;0.00;0.00;0.62;2.00;1.80;;;28.80;26.80;;;;;;2241793;61;20407;-66
2022/08/23 03:07:42;0.00;0.00;0.62;0.00;0.00;0.62;3.17;2.23;;;28.80;26.80;;;;;;2245462;61;20537;-65
2022/08/23 03:10:28;0.00;0.00;0.62;0.00;0.00;0.62;2.53;2.30;;;28.80;26.70;;;;;;2246227;61;20440;-65
2022/08/23 03:13:19;0.00;0.00;0.62;0.00;0.00;0.62;2.50;2.30;;;28.90;26.80;;;;;;2246219;61;20366;-65
2022/08/23 03:16:07;0.00;0.00;0.62;0.00;0.00;0.62;2.43;2.23;;;28.90;26.70;;;;;;2243732;61;20410;-62
2022/08/23 03:18:52;0.00;0.00;0.62;0.00;0.00;0.62;2.83;2.10;;;28.90;26.70;;;;;;2241922;62;20371;-64
2022/08/23 03:21:41;0.00;0.00;0.62;0.00;0.00;0.62;2.43;2.23;;;28.90;26.70;;;;;;2241853;62;20387;-61
2022/08/23 03:24:27;0.00;0.00;0.62;0.00;0.00;0.62;3.60;2.10;;;28.90;26.70;;;;;;2242135;62;20592;-64
2022/08/23 03:27:11;0.00;0.00;0.62;0.00;0.00;0.62;3.00;2.37;;;28.90;26.70;;;;;;2241803;62;20778;-65
2022/08/23 03:29:58;0.00;0.00;0.62;0.00;0.00;0.62;3.33;2.80;;;28.90;26.70;;;;;;2241330;61;20370;-66
2022/08/23 03:32:43;0.00;0.00;0.62;0.00;0.00;0.62;5.87;2.47;;;28.90;26.60;;;;;;2241876;62;20366;-64
2022/08/23 03:35:29;0.00;0.00;0.62;0.00;0.00;0.62;3.50;2.10;;;28.90;26.60;;;;;;2238906;61;20747;-66
2022/08/23 03:38:16;0.00;0.00;0.62;0.00;0.00;0.62;3.00;2.67;;;28.90;26.60;;;;;;2241329;62;20402;-61
2022/08/23 03:41:01;0.00;0.00;0.62;0.00;0.00;0.62;2.47;2.10;;;28.90;26.60;;;;;;2241549;62;20696;-63
2022/08/23 03:43:46;0.00;0.00;0.62;0.00;0.00;0.62;3.93;2.70;;;28.90;27.20;;;;;;2241663;62;20358;-64
2022/08/23 03:46:31;0.00;0.00;0.62;0.00;0.00;0.62;2.53;2.00;;;28.90;26.60;;;;;;2244314;61;20406;-63
2022/08/23 03:49:18;0.00;0.00;0.62;0.00;0.00;0.62;4.33;2.60;;;28.90;26.60;;;;;;2241445;62;20362;-63
2022/08/23 03:52:10;0.00;0.00;0.62;0.00;0.00;0.62;3.70;2.83;;;28.90;26.60;;;;;;2241105;62;20404;-62
2022/08/23 03:54:57;0.00;0.00;0.62;0.00;0.00;0.62;3.70;2.47;;;28.90;26.60;;;;;;2241555;61;20390;-64
2022/08/23 03:57:43;0.00;0.00;0.62;0.00;0.00;0.62;2.60;2.17;;;28.90;26.60;;;;;;2241842;62;20507;-66
2022/08/23 04:00:29;0.00;0.00;0.62;0.00;0.00;0.62;2.70;2.50;;;28.90;26.60;;;;;;2241181;62;20858;-66
2022/08/23 04:03:13;0.00;0.00;0.62;0.00;0.00;0.62;3.40;2.67;;;28.90;26.60;;;;;;2241402;62;20439;-63
2022/08/23 04:06:16;0.00;0.00;0.62;0.00;0.00;0.62;3.13;2.40;;;28.90;26.60;;;;;;2238802;62;20410;-63
2022/08/23 04:09:01;0.00;0.00;0.62;0.00;0.00;0.62;2.73;2.10;;;28.90;26.50;;;;;;2237744;62;20411;-61
2022/08/23 04:11:47;0.00;0.00;0.62;0.00;0.00;0.62;2.83;2.20;;;28.90;26.50;;;;;;2237930;62;20367;-63
2022/08/23 04:14:34;0.00;0.00;0.62;0.00;0.00;0.62;3.07;2.40;;;28.90;26.50;;;;;;2237463;62;20391;-62
2022/08/23 04:17:20;0.00;0.00;0.62;0.00;0.00;0.62;3.10;2.67;;;28.90;26.50;;;;;;2489485;54;20414;-63
2022/08/23 04:20:07;0.00;0.00;0.62;0.00;0.00;0.62;2.83;2.53;;;28.90;26.50;;;;;;2241831;62;20366;-63
2022/08/23 04:22:57;0.00;0.00;0.62;0.00;0.00;0.62;3.20;2.50;;;28.90;26.60;;;;;;2241009;62;20370;-61
2022/08/23 04:25:45;0.00;0.00;0.62;0.00;0.00;0.62;3.20;2.50;;;28.90;26.60;;;;;;2241050;61;20363;-64
2022/08/23 04:28:32;0.00;0.00;0.62;0.00;0.00;0.62;2.50;2.10;;;28.90;26.60;;;;;;2241119;62;20430;-63
2022/08/23 04:31:19;0.00;0.00;0.62;0.00;0.00;0.62;3.63;2.20;;;28.90;26.60;;;;;;2241983;62;20635;-62
2022/08/23 04:34:07;0.00;0.00;0.62;0.00;0.00;0.62;3.73;2.40;;;28.90;26.60;;;;;;2241353;62;20602;-66
2022/08/23 04:36:51;0.00;0.00;0.62;0.00;0.00;0.62;2.60;2.30;;;28.90;26.60;;;;;;2240871;62;20770;-65
2022/08/23 04:42:16;0.00;0.00;0.62;0.00;0.00;0.62;2.90;2.40;;;28.90;26.60;;;;;;2241318;62;20807;-62
2022/08/23 04:42:44;0.00;0.00;0.62;0.00;0.00;0.62;2.57;2.00;;;28.90;26.60;;;;;;2241648;62;20730;-64
2022/08/23 04:45:31;0.00;0.00;0.62;0.00;0.00;0.62;2.10;1.80;;;28.80;26.50;;;;;;2240887;61;20374;-62
2022/08/23 04:48:16;0.00;0.00;0.62;0.00;0.00;0.62;4.30;2.80;;;28.80;26.50;;;;;;2241459;62;20458;-62
2022/08/23 04:51:06;0.00;0.00;0.62;0.00;0.00;0.62;3.10;2.53;;;28.80;26.50;;;;;;2240884;62;20438;-64
2022/08/23 04:53:54;0.00;0.00;0.62;0.00;0.00;0.62;3.60;2.67;;;28.80;26.50;;;;;;2241627;62;20435;-63
2022/08/23 04:56:59;0.00;0.00;0.62;0.00;0.00;0.62;2.73;2.33;;;28.80;26.50;;;;;;2241472;62;20402;-65
2022/08/23 04:59:44;0.00;0.00;0.62;0.00;0.00;0.62;2.70;2.40;;;28.80;26.50;;;;;;2240918;62;20359;-69
2022/08/23 05:02:30;0.00;0.00;0.62;0.00;0.00;0.62;2.80;2.40;;;28.80;26.50;;;;;;2241787;62;20602;-67
2022/08/23 05:05:16;0.00;0.00;0.62;0.00;0.00;0.62;4.27;2.77;;;28.80;26.60;;;;;;2241007;61;20498;-65
2022/08/23 05:08:03;0.00;0.00;0.62;0.00;0.00;0.62;3.80;2.33;;;28.80;26.60;;;;;;2241567;62;20651;-63
2022/08/23 05:10:48;0.00;0.00;0.62;0.00;0.00;0.62;5.93;2.30;;;28.80;26.60;;;;;;2241786;62;20366;-68
2022/08/23 05:13:34;0.00;0.00;0.62;0.00;0.00;0.62;4.87;2.53;;;28.80;26.60;;;;;;2240770;62;20370;-71
2022/08/23 05:16:20;0.00;0.00;0.62;0.00;0.00;0.62;3.40;2.43;;;28.70;26.60;;;;;;2241589;62;20374;-68
2022/08/23 05:19:26;0.00;0.00;0.62;0.00;0.00;0.62;3.60;3.00;;;28.80;26.70;;;;;;2241583;62;20394;-64
2022/08/23 05:22:11;0.00;0.00;0.62;0.00;0.00;0.62;4.90;2.80;;;28.80;26.70;;;;;;2241595;62;20371;-68
2022/08/23 05:25:19;0.00;0.00;0.62;0.00;0.00;0.62;2.87;2.50;;;28.70;26.60;;;;;;2238840;61;20414;-67
2022/08/23 05:28:05;0.00;0.00;0.62;0.00;0.00;0.62;3.30;2.67;;;28.70;26.60;;;;;;2240770;62;20438;-69
2022/08/23 05:30:59;0.00;0.00;0.62;0.00;0.00;0.62;4.03;2.40;;;28.80;26.70;;;;;;2242142;62;20367;-71
2022/08/23 05:33:45;0.00;0.00;0.62;0.00;0.00;0.62;3.90;2.80;;;28.80;26.70;;;;;;2241475;62;20406;-69
2022/08/23 05:36:33;0.00;0.00;0.62;0.00;0.00;0.62;3.60;2.57;;;28.80;26.70;;;;;;2240798;61;20666;-69
2022/08/23 05:39:18;0.00;0.00;0.62;0.00;0.00;0.62;8.77;2.93;;;28.80;26.70;;;;;;2241335;62;20446;-67
2022/08/23 05:42:07;0.00;0.00;0.62;0.00;0.00;0.62;3.13;2.60;;;28.80;26.80;;;;;;2241317;62;20402;-70
2022/08/23 05:44:53;0.00;0.00;0.62;0.00;0.00;0.62;3.30;2.50;;;28.70;26.70;;;;;;2241401;62;20395;-64
2022/08/23 05:47:39;0.00;0.00;0.62;0.00;0.00;0.62;3.67;3.20;;;28.70;26.70;;;;;;2241113;62;20455;-66
2022/08/23 05:50:39;0.00;0.00;0.62;0.00;0.00;0.62;3.03;2.40;;;28.70;26.70;;;;;;2240980;62;20419;-66
2022/08/23 05:53:25;0.00;0.00;0.62;0.00;0.00;0.62;3.97;2.57;;;28.70;26.70;;;;;;2241324;62;20771;-71
2022/08/23 05:56:14;0.00;0.00;0.62;0.00;0.00;0.62;3.70;2.43;;;28.70;26.70;;;;;;2241325;61;20373;-73
2022/08/23 05:59:04;0.00;0.00;0.62;0.00;0.00;0.62;2.93;2.63;;;28.70;26.80;;;;;;2240804;62;20394;-70
2022/08/23 06:01:49;0.00;0.00;0.62;0.00;0.00;0.62;4.50;2.87;;;28.70;26.80;;;;;;2241215;62;20443;-69
2022/08/23 06:04:36;0.00;0.00;0.62;0.00;0.00;0.62;4.60;3.00;;;28.70;27.40;;;;;;2241329;62;20361;-72
2022/08/23 06:07:20;0.00;0.00;0.62;0.00;0.00;0.62;3.27;2.90;;;28.70;26.90;;;;;;2241473;62;20466;-75
2022/08/23 06:10:08;0.00;0.00;0.62;0.00;0.00;0.62;3.53;2.43;;;28.70;26.90;;;;;;2241124;62;20762;-68
2022/08/23 06:12:54;0.00;0.00;0.62;0.00;0.00;0.62;3.90;2.83;;;28.70;26.90;;;;;;2241021;62;20609;-74
2022/08/23 06:15:42;0.00;0.00;0.62;0.00;0.00;0.62;2.67;2.40;;;28.70;26.90;;;;;;2241053;61;20398;-71
2022/08/23 06:18:28;0.00;0.00;0.62;0.00;0.00;0.62;3.53;2.73;;;28.70;26.90;;;;;;2241465;62;20461;-71
2022/08/23 06:21:20;0.00;0.00;0.62;0.00;0.00;0.62;3.80;2.50;;;28.60;26.90;;;;;;2241115;62;20566;-66
2022/08/23 06:24:07;0.00;0.00;0.62;0.00;0.00;0.62;4.37;2.77;;;28.70;27.00;;;;;;2241224;62;20402;-65
2022/08/23 06:26:58;0.00;0.00;0.62;0.00;0.00;0.62;4.93;2.90;;;28.60;26.90;;;;;;2240800;62;20759;-62
2022/08/23 06:29:44;0.00;0.00;0.62;0.00;0.00;0.62;3.27;2.23;;;28.60;26.90;;;;;;2241555;62;20366;-63
2022/08/23 06:32:55;0.00;0.00;0.62;0.00;0.00;0.62;3.83;2.57;;;28.70;27.00;;;;;;2241845;61;20373;-63
2022/08/23 06:36:06;0.00;0.00;0.62;0.00;0.00;0.62;3.50;2.33;;;28.70;27.00;;;;;;2241307;62;20386;-62
2022/08/23 06:39:32;0.00;0.00;0.62;0.00;0.00;0.62;3.67;2.37;;;28.70;27.00;;;;;;2241513;62;20378;-64
2022/08/23 06:42:26;0.00;0.00;0.62;0.00;0.00;0.62;3.30;2.70;;;28.60;26.90;;;;;;2240853;62;20366;-69
2022/08/23 06:45:18;0.00;0.00;0.62;0.00;0.00;0.62;3.60;2.93;;;28.60;26.90;;;;;;2240750;62;20367;-63
2022/08/23 06:48:08;0.00;0.00;0.62;0.00;0.00;0.62;3.33;2.57;;;28.60;26.90;;;;;;2241835;62;20774;-66
2022/08/23 06:50:53;0.00;0.00;0.62;0.00;0.00;0.62;5.97;2.70;;;28.60;26.90;;;;;;2240667;62;20394;-63
2022/08/23 06:53:48;0.00;0.00;0.62;0.00;0.00;0.62;3.00;2.70;;;28.60;26.90;;;;;;2241006;62;20370;-65
2022/08/23 06:56:52;0.00;0.00;0.62;0.00;0.00;0.62;4.40;3.00;;;28.70;26.90;;;;;;2240965;62;20762;-67
2022/08/23 06:59:47;0.00;0.00;0.62;0.00;0.00;0.62;3.40;2.60;;;28.60;26.90;;;;;;2241216;62;20406;-64
2022/08/23 07:02:48;0.00;0.00;0.62;0.00;0.00;0.62;3.30;2.27;;;28.70;27.00;;;;;;2241466;62;20370;-65
2022/08/23 07:05:52;0.00;0.00;0.62;0.00;0.00;0.62;5.43;2.67;;;28.70;26.90;;;;;;2240965;61;20390;-66
2022/08/23 07:08:40;0.00;0.00;0.62;0.00;0.00;0.62;2.50;2.30;;;28.70;26.90;;;;;;2238549;62;20678;-63
2022/08/23 07:11:30;0.00;0.00;0.62;0.00;0.00;0.62;4.10;2.40;;;28.70;27.00;;;;;;2239652;62;20381;-60
2022/08/23 07:14:17;0.00;0.00;0.62;0.00;0.00;0.62;3.87;2.60;;;28.70;27.00;;;;;;2241928;62;20603;-61
2022/08/23 07:17:04;0.00;0.00;0.62;0.00;0.00;0.62;3.10;2.80;;;28.70;27.00;;;;;;2242008;62;20394;-62
2022/08/23 07:19:50;0.00;0.00;0.62;0.00;0.00;0.62;2.40;2.10;;;28.80;27.10;;;;;;2241358;62;20484;-63
2022/08/23 07:22:36;0.00;0.00;0.62;0.00;0.00;0.62;3.50;2.20;;;28.70;27.00;;;;;;2241639;62;20774;-62
2022/08/23 07:25:23;0.00;0.00;0.62;0.00;0.00;0.62;3.97;2.40;;;28.80;27.10;;;;;;2242294;61;20591;-71
2022/08/23 07:28:13;0.00;0.00;0.62;0.00;0.00;0.62;2.67;2.43;;;28.80;27.10;;;;;;2241370;62;20394;-67
2022/08/23 07:31:08;0.00;0.00;0.62;0.00;0.00;0.62;3.97;3.07;;;28.80;27.10;;;;;;2244265;61;20387;-60
2022/08/23 07:33:58;0.00;0.00;0.62;0.00;0.00;0.62;4.40;2.43;;;28.80;27.10;;;;;;2241501;62;20447;-63
2022/08/23 07:36:45;0.00;0.00;0.62;0.00;0.00;0.62;3.40;2.43;;;28.90;27.20;;;;;;2242101;61;20534;-60
2022/08/23 07:39:30;0.00;0.00;0.62;0.00;0.00;0.62;3.80;2.73;;;28.90;27.20;;;;;;2242229;62;20358;-63
2022/08/23 07:42:16;0.00;0.00;0.62;0.00;0.00;0.62;3.00;2.40;;;28.90;27.10;;;;;;2241653;62;20366;-64
2022/08/23 07:45:02;0.00;0.00;0.62;0.00;0.00;0.62;3.50;2.40;;;28.90;27.10;;;;;;2238765;61;20430;-60
2022/08/23 07:47:50;0.00;0.00;0.62;0.00;0.00;0.62;4.73;2.60;;;28.90;27.00;;;;;;2241822;62;20609;-64
2022/08/23 07:50:38;0.00;0.00;0.62;0.00;0.00;0.62;3.47;2.63;;;28.90;27.00;;;;;;2241467;62;20370;-62
2022/08/23 07:53:24;0.00;0.00;0.62;0.00;0.00;0.62;3.80;2.10;;;28.90;26.90;;;;;;2241958;62;20375;-64
2022/08/23 07:56:11;0.00;0.00;0.62;0.00;0.00;0.62;2.70;2.40;;;28.90;26.90;;;;;;2240965;61;20382;-59
2022/08/23 07:59:19;0.00;0.00;0.62;0.00;0.00;0.62;3.40;2.77;;;28.90;26.90;;;;;;2241994;62;20367;-63
2022/08/23 08:02:22;0.00;0.00;0.62;0.00;0.00;0.62;5.73;2.90;;;28.90;26.90;;;;;;2241814;62;20459;-61
2022/08/23 08:05:09;0.00;0.00;0.62;0.00;0.00;0.62;4.13;2.97;;;28.90;26.80;;;;;;2241676;61;20766;-58
2022/08/23 08:07:55;0.00;0.00;0.62;0.00;0.00;0.62;2.73;2.50;;;28.90;26.80;;;;;;2238734;62;20389;-61
2022/08/23 08:10:42;0.00;0.00;0.62;0.00;0.00;0.62;2.87;2.57;;;29.00;26.80;;;;;;2240945;62;20471;-62
2022/08/23 08:13:28;0.00;0.00;0.62;0.00;0.00;0.62;3.53;2.57;;;29.00;26.80;;;;;;2241757;62;20394;-59
2022/08/23 08:16:22;0.00;0.00;0.62;0.00;0.00;0.62;3.23;2.80;;;29.00;26.80;;;;;;2241427;61;20442;-63
2022/08/23 08:19:13;0.00;0.00;0.62;0.00;0.00;0.62;3.27;2.53;;;29.00;26.80;;;;;;2241030;62;20362;-59
2022/08/23 08:22:17;0.00;0.00;0.62;0.00;0.00;0.62;3.50;2.70;;;29.00;26.80;;;;;;2241807;62;20807;-63
2022/08/23 08:25:22;0.00;0.00;0.62;0.00;0.00;0.62;4.07;2.70;;;29.00;26.70;;;;;;2241238;61;20401;-63
2022/08/23 08:28:08;0.00;0.00;0.62;0.00;0.00;0.62;2.90;2.63;;;29.00;26.70;;;;;;2241755;62;20395;-59
2022/08/23 08:30:53;0.00;0.00;0.62;0.00;0.00;0.62;3.03;2.73;;;28.90;26.60;;;;;;2241421;62;20469;-63
2022/08/23 08:33:38;0.00;0.00;0.62;0.00;0.00;0.62;3.90;2.40;;;29.00;26.70;;;;;;2240984;62;20387;-61
2022/08/23 08:36:31;0.00;0.00;0.62;0.00;0.00;0.62;4.40;2.50;;;29.00;27.30;;;;;;2241260;62;20374;-61
2022/08/23 08:39:20;0.00;0.00;0.62;0.00;0.00;0.62;4.83;2.83;;;28.90;26.70;;;;;;2241654;62;20410;-61
2022/08/23 08:42:31;0.00;0.00;0.62;0.00;0.00;0.62;3.03;2.33;;;29.00;26.80;;;;;;2241251;62;20355;-64
2022/08/23 08:45:23;0.00;0.00;0.62;0.00;0.00;0.62;2.33;2.03;;;29.00;26.70;;;;;;2241281;61;20411;-61
2022/08/23 08:48:13;0.00;0.00;0.62;0.00;0.00;0.62;2.57;2.33;;;29.00;26.70;;;;;;2240924;62;20463;-61
2022/08/23 08:51:18;0.00;0.00;0.62;0.00;0.00;0.62;4.70;2.53;;;29.00;26.70;;;;;;2241253;62;20443;-58
2022/08/23 08:54:08;0.00;0.00;0.62;0.00;0.00;0.62;4.50;2.47;;;29.00;26.60;;;;;;2241623;62;20389;-61
2022/08/23 08:57:06;0.00;0.00;0.62;0.00;0.00;0.62;4.20;2.80;;;29.00;26.60;;;;;;2241262;62;20443;-60
2022/08/23 09:00:04;0.00;0.00;0.62;0.00;0.00;0.62;3.70;3.17;;;29.00;26.50;;;;;;2241341;62;20369;-61
2022/08/23 09:02:52;0.00;0.00;0.62;0.00;0.00;0.62;4.17;2.90;;;29.00;26.50;;;;;;2240798;62;20370;-58
2022/08/23 09:05:43;0.00;0.00;0.62;0.00;0.00;0.62;2.63;2.37;;;29.10;26.50;;;;;;2241540;62;20380;-62
2022/08/23 09:08:45;0.00;0.00;0.62;0.00;0.00;0.62;4.57;2.97;;;29.10;26.40;;;;;;2241533;62;20451;-60
2022/08/23 09:11:49;0.00;0.00;0.62;0.00;0.00;0.62;2.77;2.50;;;29.10;26.30;;;;;;2241041;62;20422;-61
2022/08/23 09:14:53;0.00;0.00;0.62;0.00;0.00;0.62;3.30;2.17;;;29.10;26.20;;;;;;2241152;62;20430;-62
2022/08/23 09:17:45;0.00;0.00;0.62;0.00;0.00;0.62;2.90;2.43;;;29.10;26.20;;;;;;2241282;62;20398;-61
2022/08/23 09:20:31;0.00;0.00;0.62;0.00;0.00;0.62;3.40;2.00;;;29.10;26.20;;;;;;2242052;61;20600;-63
2022/08/23 09:23:22;0.00;0.00;0.62;0.00;0.00;0.62;2.53;1.93;;;29.10;26.10;;;;;;2238880;62;20370;-62
2022/08/23 09:26:22;0.00;0.00;0.62;0.00;0.00;0.62;2.60;2.10;;;29.20;26.00;;;;;;2240853;61;20374;-64
2022/08/23 09:29:20;0.00;0.00;0.62;0.00;0.00;0.62;2.93;1.90;;;29.20;25.70;;;;;;2241210;62;20365;-64
2022/08/23 09:32:26;0.00;0.00;0.62;0.00;0.00;0.62;2.73;1.80;;;29.20;25.40;;;;;;2240770;62;20371;-61
2022/08/23 09:35:17;0.00;0.00;0.62;0.00;0.00;0.62;2.10;1.63;;;29.20;25.30;;;;;;2241289;61;20478;-59
2022/08/23 09:38:20;0.00;0.00;0.62;0.00;0.00;0.62;1.70;1.30;;;29.20;25.20;;;;;;2241419;62;20826;-61
2022/08/23 09:41:19;0.00;0.00;0.62;0.00;0.00;0.62;2.20;1.50;;;29.20;25.10;;;;;;2240984;62;20390;-62
2022/08/23 09:44:12;0.00;0.00;0.62;0.00;0.00;0.62;2.37;1.70;;;29.20;25.20;;;;;;2241182;62;20761;-60
2022/08/23 09:47:06;0.00;0.00;0.62;0.00;0.00;0.62;1.83;1.50;;;29.20;25.20;;;;;;2240725;62;20421;-63
2022/08/23 09:49:53;0.00;0.00;0.62;0.00;0.00;0.62;2.53;1.80;;;29.20;25.10;;;;;;2241523;62;20575;-62
2022/08/23 09:52:41;0.00;0.00;0.62;0.00;0.00;0.62;2.07;1.77;;;29.30;25.10;;;;;;2241324;62;20370;-63
2022/08/23 09:55:32;0.00;0.00;0.62;0.00;0.00;0.62;2.83;1.80;;;29.30;25.10;;;;;;2240715;62;20418;-62
2022/08/23 09:58:25;0.00;0.00;0.62;0.00;0.00;0.62;1.70;1.13;;;29.30;25.10;;;;;;2241217;62;20431;-61
2022/08/23 10:01:20;0.00;0.00;0.62;0.00;0.00;0.62;1.97;1.33;;;29.30;25.10;;;;;;2241187;62;20394;-62
2022/08/23 10:04:16;0.00;0.00;0.62;0.00;0.00;0.62;1.50;1.10;;;29.30;24.90;;;;;;2241496;62;20596;-59
2022/08/23 10:07:21;0.00;0.00;0.62;0.00;0.00;0.62;1.80;1.50;;;29.30;24.80;;;;;;2240927;62;20481;-60
2022/08/23 10:10:25;0.00;0.00;0.62;0.00;0.00;0.62;1.70;1.30;;;29.40;24.70;;;;;;2240865;62;20552;-62
2022/08/23 10:13:13;0.00;0.00;0.62;0.00;0.00;0.62;2.53;1.40;;;29.40;24.70;;;;;;2241199;62;20592;-60
2022/08/23 10:16:14;0.00;0.00;0.62;0.00;0.00;0.62;1.83;1.10;;;29.40;24.60;;;;;;2241126;61;20446;-63
2022/08/23 10:19:24;0.00;0.00;0.62;0.00;0.00;0.62;2.00;1.13;;;29.40;24.60;;;;;;2241559;62;20406;-60
2022/08/23 10:22:17;0.00;0.00;0.62;0.00;0.00;0.62;3.20;1.30;;;29.40;24.60;;;;;;2241334;62;20366;-60
2022/08/23 10:25:25;0.00;0.00;0.62;0.00;0.00;0.62;2.73;1.60;;;29.50;24.70;;;;;;2240692;61;20398;-63
2022/08/23 10:31:33;0.00;0.00;0.62;0.00;0.00;0.62;2.20;1.20;;;29.50;24.70;;;;;;2241090;62;20370;-62
2022/08/23 10:34:42;0.00;0.00;0.62;0.00;0.00;0.62;2.67;1.40;;;29.50;24.70;;;;;;2241384;62;20409;-60
2022/08/23 10:37:48;0.00;0.00;0.62;0.00;0.00;0.62;2.10;1.43;;;29.60;24.70;;;;;;2609135;46;20390;-62
2022/08/23 10:40:44;0.00;0.00;0.62;0.00;0.00;0.62;2.27;1.47;;;29.60;24.70;;;;;;2240954;62;20377;-59
2022/08/23 10:43:37;0.00;0.00;0.62;0.00;0.00;0.62;2.23;1.47;;;29.60;24.70;;;;;;2241141;62;20590;-62
2022/08/23 10:46:26;0.00;0.00;0.62;0.00;0.00;0.62;2.20;1.10;;;29.60;25.20;;;;;;2241168;62;20410;-62
2022/08/23 10:49:13;0.00;0.00;0.62;0.00;0.00;0.62;2.07;1.37;;;29.60;24.70;;;;;;2242427;62;20366;-63
2022/08/23 10:52:00;0.00;0.00;0.62;0.00;0.00;0.62;2.30;1.30;;;29.60;24.70;;;;;;2242432;62;20366;-61
2022/08/23 10:55:04;0.00;0.00;0.62;0.00;0.00;0.62;1.87;1.10;;;29.70;24.80;;;;;;2241334;62;20390;-63
2022/08/23 10:57:52;0.00;0.00;0.62;0.00;0.00;0.62;2.07;1.40;;;29.70;24.80;;;;;;2240409;62;20410;-60
2022/08/23 11:00:40;0.00;0.00;0.62;0.00;0.00;0.62;1.93;1.20;;;29.70;24.80;;;;;;2237822;62;20797;-61
2022/08/23 11:03:30;0.00;0.00;0.62;0.00;0.00;0.62;2.27;1.63;;;29.70;24.80;;;;;;2238478;62;20408;-61
2022/08/23 11:06:48;0.00;0.00;0.62;0.00;0.00;0.62;2.30;1.40;;;29.70;24.80;;;;;;2239985;62;20377;-62
2022/08/23 11:09:51;0.00;0.00;0.62;0.00;0.00;0.62;2.53;1.10;;;29.80;24.70;;;;;;2241367;62;20362;-64
2022/08/23 11:12:52;0.00;0.00;0.62;0.00;0.00;0.62;2.77;1.40;;;29.80;24.50;;;;;;2241673;62;20366;-60
2022/08/23 11:15:43;0.00;0.00;0.62;0.00;0.00;0.62;1.90;1.20;;;29.80;24.50;;;;;;2241044;62;20401;-61
2022/08/23 11:18:40;0.00;0.00;0.62;0.00;0.00;0.62;2.97;1.20;;;29.80;24.60;;;;;;2245385;61;20413;-60